createdAt,value
2023-04-21T00:02:13.203Z,9.80
2023-04-21T00:07:16.615Z,9.61
2023-04-21T00:12:18.281Z,9.46
2023-04-21T00:17:20.349Z,9.27
2023-04-21T00:22:23.459Z,9.29
2023-04-21T00:27:25.653Z,9.57
2023-04-21T00:32:27.811Z,9.68
2023-04-21T00:37:31.389Z,9.64
2023-04-21T00:42:33.430Z,9.49
2023-04-21T00:47:35.680Z,9.48
2023-04-21T00:52:39.740Z,9.62
2023-04-21T00:57:42.131Z,9.64
2023-04-21T01:02:44.585Z,9.77
2023-04-21T01:07:48.398Z,9.75
2023-04-21T01:12:50.767Z,9.91
2023-04-21T01:17:54.567Z,10.11
2023-04-21T01:22:57.954Z,9.97
2023-04-21T01:28:00.008Z,9.80
2023-04-21T01:33:02.246Z,9.73
2023-04-21T01:38:05.921Z,9.97
2023-04-21T01:43:08.368Z,10.12
2023-04-21T01:48:10.570Z,10.08
2023-04-21T01:53:14.188Z,10.07
2023-04-21T01:58:16.356Z,10.01
2023-04-21T02:03:19.128Z,9.86
2023-04-21T02:08:22.521Z,9.79
2023-04-21T02:13:24.187Z,9.68
2023-04-21T02:18:26.239Z,9.59
2023-04-21T02:23:29.252Z,9.50
2023-04-21T02:28:30.967Z,9.38
2023-04-21T02:33:32.744Z,9.34
2023-04-21T02:38:35.817Z,9.22
2023-04-21T02:43:37.988Z,9.17
2023-04-21T02:48:39.985Z,9.31
2023-04-21T02:53:43.425Z,9.07
2023-04-21T02:58:45.557Z,9.13
2023-04-21T03:03:47.897Z,9.08
2023-04-21T03:08:51.521Z,9.14
2023-04-21T03:13:53.588Z,8.92
2023-04-21T03:18:55.602Z,8.78
2023-04-21T03:23:58.884Z,9.13
2023-04-21T03:29:01.045Z,9.07
2023-04-21T03:34:03.173Z,8.92
2023-04-21T03:39:19.227Z,8.88
2023-04-21T03:44:25.373Z,8.85
2023-04-21T03:49:27.597Z,8.75
2023-04-21T03:54:31.052Z,8.49
2023-04-21T03:59:33.240Z,8.60
2023-04-21T04:04:35.654Z,8.62
2023-04-21T04:09:39.201Z,8.61
2023-04-21T04:14:41.246Z,8.54
2023-04-21T04:19:43.271Z,8.50
2023-04-21T04:24:46.707Z,8.69
2023-04-21T04:29:48.431Z,8.74
2023-04-21T04:34:50.474Z,8.79
2023-04-21T04:39:54.879Z,8.76
2023-04-21T04:44:57.002Z,8.75
2023-04-21T04:49:58.674Z,8.90
2023-04-21T04:55:01.830Z,9.04
2023-04-21T05:00:04.344Z,9.07
2023-04-21T05:05:07.432Z,9.18
2023-04-21T05:10:11.642Z,10.03
2023-04-21T05:15:13.620Z,11.40
2023-04-21T05:20:15.352Z,12.26
2023-04-21T05:25:18.379Z,12.58
2023-04-21T05:30:20.754Z,12.90
2023-04-21T05:35:22.407Z,12.92
2023-04-21T05:40:25.832Z,13.45
2023-04-21T05:45:27.836Z,13.72
2023-04-21T05:50:29.549Z,13.98
2023-04-21T05:55:34.306Z,14.62
2023-04-21T06:00:36.007Z,15.61
2023-04-21T06:05:38.644Z,16.06
2023-04-21T06:10:41.792Z,14.53
2023-04-21T06:15:44.162Z,14.31
2023-04-21T06:20:50.741Z,13.35
2023-04-21T06:26:05.748Z,12.59
2023-04-21T06:31:08.960Z,12.53
2023-04-21T06:36:11.197Z,12.52
2023-04-21T06:41:14.734Z,12.31
2023-04-21T06:46:16.846Z,12.81
2023-04-21T06:51:18.744Z,12.91
2023-04-21T06:56:22.319Z,12.99
2023-04-21T07:01:24.077Z,13.15
2023-04-21T07:06:27.212Z,13.17
2023-04-21T07:11:30.693Z,13.14
2023-04-21T07:16:33.415Z,13.28
2023-04-21T07:21:35.469Z,13.36
2023-04-21T07:26:38.907Z,13.54
2023-04-21T07:31:41.112Z,13.74
2023-04-21T07:36:43.338Z,13.97
2023-04-21T07:41:47.071Z,14.10
2023-04-21T07:46:49.149Z,14.20
2023-04-21T07:51:52.377Z,14.45
2023-04-21T07:56:55.806Z,14.47
2023-04-21T08:01:58.340Z,14.80
2023-04-21T08:07:00.834Z,14.92
2023-04-21T08:12:04.891Z,15.06
2023-04-21T08:22:27.390Z,15.51
2023-04-21T08:27:30.770Z,15.72
2023-04-21T08:32:32.878Z,15.71
2023-04-21T08:37:37.032Z,16.03
2023-04-21T08:42:40.301Z,16.47
2023-04-21T08:47:43.203Z,16.64
2023-04-21T08:52:45.398Z,16.49
2023-04-21T08:57:49.019Z,16.98
2023-04-21T09:03:00.688Z,17.26
2023-04-21T09:08:11.579Z,20.49
2023-04-21T09:13:16.250Z,21.38
2023-04-21T09:18:20.055Z,21.75
2023-04-21T09:23:22.145Z,22.17
2023-04-21T09:28:31.706Z,24.57
2023-04-21T09:38:36.592Z,24.43
2023-04-21T09:43:40.132Z,26.07
2023-04-21T09:48:44.658Z,25.63
2023-04-21T09:53:50.282Z,25.46
2023-04-21T09:58:54.882Z,25.85
2023-04-21T10:03:57.970Z,25.31
2023-04-21T10:09:01.303Z,25.09
2023-04-21T10:14:05.286Z,26.38
2023-04-21T10:19:25.210Z,26.08
2023-04-21T10:24:28.839Z,24.94
2023-04-21T10:29:48.025Z,26.05
2023-04-21T10:34:56.879Z,26.68
2023-04-21T10:39:59.153Z,26.02
2023-04-21T10:45:07.707Z,25.83
2023-04-21T10:50:21.167Z,25.06
2023-04-21T10:55:26.764Z,24.20
2023-04-21T11:00:30.204Z,24.93
2023-04-21T11:05:35.762Z,23.60
2023-04-21T11:10:46.757Z,21.47
2023-04-21T11:16:05.594Z,22.27
2023-04-21T11:21:13.130Z,21.46
2023-04-21T11:26:15.003Z,21.58
2023-04-21T11:31:18.610Z,22.04
2023-04-21T11:36:22.226Z,21.10
2023-04-21T11:41:24.743Z,20.97
2023-04-21T11:46:28.949Z,22.01
2023-04-21T11:51:34.485Z,22.12
2023-04-21T11:56:37.883Z,22.60
2023-04-21T12:01:45.786Z,21.97
2023-04-21T12:06:55.105Z,21.95
2023-04-21T12:12:00.191Z,21.38
2023-04-21T12:17:06.994Z,21.05
2023-04-21T12:22:09.856Z,21.83
2023-04-21T12:27:13.012Z,22.37
2023-04-21T12:32:16.640Z,22.71
2023-04-21T12:37:19.302Z,21.54
2023-04-21T12:42:21.465Z,21.04
2023-04-21T12:47:25.062Z,20.62
2023-04-21T12:52:27.409Z,21.58
2023-04-21T12:57:29.516Z,21.64
2023-04-21T13:02:33.119Z,21.36
2023-04-21T13:07:35.372Z,21.11
2023-04-21T13:12:37.898Z,20.46
2023-04-21T13:17:41.375Z,21.03
2023-04-21T13:22:43.279Z,20.42
2023-04-21T13:27:45.247Z,21.00
2023-04-21T13:32:49.934Z,21.22
2023-04-21T13:37:52.315Z,21.00
2023-04-21T13:42:54.547Z,22.04
2023-04-21T13:47:57.962Z,22.50
2023-04-21T13:53:00.029Z,22.05
2023-04-21T13:58:02.193Z,21.61
2023-04-21T14:03:05.900Z,22.16
2023-04-21T14:08:08.408Z,23.04
2023-04-21T14:13:15.104Z,22.94
2023-04-21T14:18:31.048Z,22.38
2023-04-21T14:23:33.255Z,22.69
2023-04-21T14:28:35.226Z,22.69
2023-04-21T14:33:38.429Z,22.60
2023-04-21T14:38:40.185Z,22.40
2023-04-21T14:43:42.287Z,22.63
2023-04-21T14:48:46.486Z,22.65
2023-04-21T14:53:50.452Z,22.45
2023-04-21T14:58:52.578Z,22.80
2023-04-21T15:03:56.485Z,22.26
2023-04-21T15:08:59.088Z,21.84
2023-04-21T15:14:01.432Z,22.06
2023-04-21T15:19:04.888Z,22.22
2023-04-21T15:24:07.056Z,22.54
2023-04-21T15:29:08.761Z,22.19
2023-04-21T15:34:12.135Z,22.51
2023-04-21T15:39:14.325Z,22.50
2023-04-21T15:44:16.774Z,22.31
2023-04-21T15:49:20.209Z,22.20
2023-04-21T15:54:22.241Z,21.81
2023-04-21T15:59:25.879Z,21.61
2023-04-21T16:04:29.428Z,21.59
2023-04-21T16:09:32.254Z,21.74
2023-04-21T16:14:46.667Z,21.52
2023-04-21T16:19:55.238Z,21.38
2023-04-21T16:24:57.488Z,21.36
2023-04-21T16:30:00.206Z,21.66
2023-04-21T16:35:04.658Z,21.38
2023-04-21T16:40:08.194Z,21.21
2023-04-21T16:45:10.590Z,20.99
2023-04-21T16:50:13.753Z,20.75
2023-04-21T16:55:15.465Z,20.52
2023-04-21T17:00:28.280Z,20.31
2023-04-21T17:05:32.559Z,20.13
2023-04-21T17:10:35.522Z,20.01
2023-04-21T17:15:40.116Z,19.66
2023-04-21T17:20:45.533Z,19.42
2023-04-21T17:25:47.878Z,19.13
2023-04-21T17:30:51.779Z,18.92
2023-04-21T17:36:03.440Z,18.79
2023-04-21T17:41:05.875Z,18.50
2023-04-21T17:46:08.180Z,18.31
2023-04-21T17:51:11.906Z,17.95
2023-04-21T17:56:14.059Z,17.75
2023-04-21T18:01:16.145Z,17.67
2023-04-21T18:06:19.765Z,17.43
2023-04-21T18:11:21.972Z,17.22
2023-04-21T18:16:24.327Z,17.18
2023-04-21T18:21:27.680Z,16.89
2023-04-21T18:26:29.405Z,16.66
2023-04-21T18:31:31.203Z,16.47
2023-04-21T18:36:37.026Z,16.32
2023-04-21T18:41:40.379Z,16.08
2023-04-21T18:46:42.498Z,16.00
2023-04-21T18:51:45.657Z,15.80
2023-04-21T18:56:47.453Z,15.69
2023-04-21T19:01:50.008Z,15.52
2023-04-21T19:06:53.549Z,15.47
2023-04-21T19:11:56.358Z,15.35
2023-04-21T19:16:58.490Z,15.34
2023-04-21T19:22:01.710Z,15.23
2023-04-21T19:27:03.525Z,15.26
2023-04-21T19:32:05.593Z,15.11
2023-04-21T19:37:09.064Z,15.02
2023-04-21T19:42:10.811Z,14.85
2023-04-21T19:47:12.991Z,14.92
2023-04-21T19:52:16.105Z,14.89
2023-04-21T19:57:17.877Z,14.76
2023-04-21T20:02:19.690Z,14.58
2023-04-21T20:07:23.366Z,14.68
2023-04-21T20:12:25.561Z,14.70
2023-04-21T20:17:27.749Z,14.37
2023-04-21T20:22:31.368Z,14.19
2023-04-21T20:27:33.811Z,14.29
2023-04-21T20:32:35.546Z,14.02
2023-04-21T20:37:38.807Z,13.90
2023-04-21T20:42:41.327Z,13.84
2023-04-21T20:47:43.112Z,13.66
2023-04-21T20:52:46.615Z,13.61
2023-04-21T20:57:48.363Z,13.53
2023-04-21T21:02:50.675Z,13.57
2023-04-21T21:07:54.582Z,13.58
2023-04-21T21:12:56.459Z,13.35
2023-04-21T21:17:58.922Z,13.29
2023-04-21T21:23:02.375Z,13.25
2023-04-21T21:28:04.640Z,13.22
2023-04-21T21:33:06.675Z,13.06
2023-04-21T21:38:10.581Z,12.99
2023-04-21T21:43:12.720Z,13.03
2023-04-21T21:48:14.587Z,12.90
2023-04-21T21:53:18.181Z,12.71
2023-04-21T21:58:20.811Z,12.67
2023-04-21T22:03:23.000Z,12.47
2023-04-21T22:08:26.769Z,12.56
2023-04-21T22:13:29.005Z,12.42
2023-04-21T22:18:31.402Z,12.12
2023-04-21T22:23:35.108Z,12.11
2023-04-21T22:28:37.163Z,12.14
2023-04-21T22:33:39.078Z,12.03
2023-04-21T22:38:42.182Z,12.08
2023-04-21T22:43:44.168Z,11.98
2023-04-21T22:48:46.350Z,11.74
2023-04-21T22:53:49.845Z,11.73
2023-04-21T22:58:52.010Z,11.52
2023-04-21T23:03:54.235Z,11.44
2023-04-21T23:08:57.286Z,11.22
2023-04-21T23:13:59.391Z,11.19
2023-04-21T23:19:01.879Z,11.00
2023-04-21T23:24:05.875Z,10.86
2023-04-21T23:29:07.970Z,10.65
2023-04-21T23:34:10.068Z,10.44
2023-04-21T23:39:13.538Z,10.26
2023-04-21T23:44:15.874Z,10.11
2023-04-21T23:49:17.571Z,10.09
2023-04-21T23:54:20.860Z,10.03
2023-04-21T23:59:22.560Z,10.11
